Time;durP1;ratioP1;P1;durP2;ratioP2;P2;SDS_P1;SDS_P2;PMS_P1;PMS_P2;Temp;Humidity;BMP_temperature;BMP_pressure;BME280_temperature;BME280_humidity;BME280_pressure;Samples;Min_cycle;Max_cycle;Signal;HPM_P1;HPM_P2
2022/04/29 00:00:16;;;;;;;25.10;11.20;;;;;;;5.08;72.34;94827.63;5050312;28;20051;-49
2022/04/29 00:02:47;;;;;;;27.67;11.80;;;;;;;4.93;72.90;94835.50;5049364;28;20049;-50
2022/04/29 00:05:16;;;;;;;25.20;11.57;;;;;;;4.76;73.16;94823.06;5050438;28;20037;-50
2022/04/29 00:07:48;;;;;;;22.23;11.05;;;;;;;4.78;73.05;94828.16;5058129;28;20047;-50
2022/04/29 00:10:16;;;;;;;25.70;12.18;;;;;;;4.77;72.99;94815.72;5069700;28;20067;-51
2022/04/29 00:12:46;;;;;;;24.05;11.90;;;;;;;4.88;73.77;94802.34;5069284;28;20040;-50
2022/04/29 00:15:15;;;;;;;22.67;11.77;;;;;;;4.86;73.27;94810.06;5070219;28;20037;-49
2022/04/29 00:17:43;;;;;;;26.77;12.57;;;;;;;4.67;74.07;94810.81;5069114;28;20142;-53
2022/04/29 00:20:10;;;;;;;20.02;11.15;;;;;;;4.72;74.05;94810.56;5069702;28;20044;-52
2022/04/29 00:22:37;;;;;;;21.48;10.93;;;;;;;4.66;74.31;94803.81;5069814;28;20032;-52
2022/04/29 00:25:05;;;;;;;19.05;10.52;;;;;;;4.48;74.54;94804.22;5089343;28;20809;-46
2022/04/29 00:27:32;;;;;;;18.83;10.03;;;;;;;4.53;74.28;94792.28;5089996;28;20523;-49
2022/04/29 00:29:59;;;;;;;19.90;10.45;;;;;;;4.53;74.04;94789.56;5060349;28;20067;-46
2022/04/29 00:32:26;;;;;;;19.23;11.02;;;;;;;4.47;74.52;94801.88;5049839;28;20045;-46
2022/04/29 00:34:52;;;;;;;18.80;10.55;;;;;;;4.49;73.96;94797.66;5048916;28;20212;-49
2022/04/29 00:37:19;;;;;;;17.90;10.48;;;;;;;4.42;74.49;94781.16;5049813;28;20037;-52
2022/04/29 00:39:46;;;;;;;17.43;10.17;;;;;;;4.44;74.75;94784.31;5047793;28;20048;-55
2022/04/29 00:42:18;;;;;;;16.83;10.50;;;;;;;4.45;74.20;94779.66;5049621;28;20067;-49
2022/04/29 00:44:45;;;;;;;17.83;10.55;;;;;;;4.31;74.46;94782.88;5047722;28;20082;-47
2022/04/29 00:47:15;;;;;;;16.92;9.93;;;;;;;4.44;74.28;94787.03;5049853;28;20044;-49
2022/04/29 00:49:43;;;;;;;37.75;16.42;;;;;;;4.34;74.88;94784.88;5049030;28;20430;-48
2022/04/29 00:52:14;;;;;;;28.87;13.50;;;;;;;4.37;74.02;94774.09;5049647;28;20111;-51
2022/04/29 00:54:47;;;;;;;25.65;13.98;;;;;;;4.06;74.59;94785.78;5049044;28;20044;-49
2022/04/29 00:57:24;;;;;;;23.60;12.27;;;;;;;4.15;74.82;94774.75;5049869;28;20041;-51
2022/04/29 01:00:09;;;;;;;35.50;16.77;;;;;;;4.16;74.02;94771.66;5049094;28;20057;-51
2022/04/29 01:02:41;;;;;;;29.00;14.55;;;;;;;4.14;73.75;94771.22;5049384;28;20040;-47
2022/04/29 01:05:11;;;;;;;26.73;14.63;;;;;;;4.13;74.24;94768.88;5068850;28;20917;-50
2022/04/29 01:07:40;;;;;;;25.77;13.40;;;;;;;4.14;74.31;94768.50;5069157;28;20047;-47
2022/04/29 01:10:08;;;;;;;23.55;12.20;;;;;;;4.12;74.26;94770.00;5068674;28;20041;-52
2022/04/29 01:12:37;;;;;;;22.80;12.70;;;;;;;4.10;74.62;94764.16;5069409;28;20041;-55
2022/04/29 01:15:12;;;;;;;21.92;12.65;;;;;;;4.03;75.09;94759.34;5067375;28;20040;-50
2022/04/29 01:17:41;;;;;;;19.33;10.60;;;;;;;3.73;75.03;94751.66;5069005;28;20413;-46
2022/04/29 01:20:10;;;;;;;18.30;10.30;;;;;;;3.66;74.96;94754.19;5069391;28;20037;-46
2022/04/29 01:22:37;;;;;;;19.85;10.70;;;;;;;3.72;75.65;94760.16;5071124;28;20056;-50
2022/04/29 01:25:04;;;;;;;19.33;11.00;;;;;;;3.75;75.53;94759.47;5072413;28;20922;-54
2022/04/29 01:27:31;;;;;;;16.67;10.10;;;;;;;3.70;74.78;94752.38;5073185;28;20048;-57
2022/04/29 01:30:11;;;;;;;17.37;9.73;;;;;;;3.64;75.70;94753.75;5072536;28;20040;-47
2022/04/29 01:32:41;;;;;;;19.75;10.43;;;;;;;3.59;75.30;94745.88;5072989;28;20037;-53
2022/04/29 01:35:11;;;;;;;18.75;11.13;;;;;;;3.69;75.69;94736.44;5052203;28;20879;-50
2022/04/29 01:37:38;;;;;;;18.70;10.20;;;;;;;3.72;76.01;94736.53;5052779;28;20383;-51
2022/04/29 01:40:06;;;;;;;18.77;10.65;;;;;;;3.81;75.52;94733.63;5052690;28;20062;-50
2022/04/29 01:42:33;;;;;;;16.00;9.40;;;;;;;3.82;76.37;94737.91;5052676;28;20505;-55
2022/04/29 01:45:00;;;;;;;16.73;10.27;;;;;;;3.66;75.82;94742.56;5052492;28;20114;-50
2022/04/29 01:47:27;;;;;;;16.83;10.05;;;;;;;3.38;76.00;94740.69;5053097;28;20041;-47
2022/04/29 01:49:54;;;;;;;17.65;9.38;;;;;;;3.37;75.40;94742.63;5042790;28;20482;-49
2022/04/29 01:52:21;;;;;;;15.85;9.73;;;;;;;3.27;75.79;94731.50;5032914;28;20033;-52
2022/04/29 01:54:48;;;;;;;17.93;10.10;;;;;;;3.37;75.97;94729.06;5047399;28;20053;-52
2022/04/29 01:57:15;;;;;;;15.18;9.65;;;;;;;3.35;75.87;94736.00;5032625;28;20490;-47
2022/04/29 01:59:41;;;;;;;15.52;10.05;;;;;;;3.39;76.88;94736.88;5031825;28;20045;-46
2022/04/29 02:02:09;;;;;;;16.05;9.55;;;;;;;3.45;77.00;94737.41;5032700;28;20045;-49
2022/04/29 02:04:37;;;;;;;16.25;10.40;;;;;;;3.38;76.82;94729.84;5032204;28;20045;-50
2022/04/29 02:07:05;;;;;;;21.17;14.43;;;;;;;3.23;77.37;94726.00;5033008;28;20046;-50
2022/04/29 02:09:33;;;;;;;16.15;10.07;;;;;;;3.15;77.95;94727.72;5052304;28;20051;-46
2022/04/29 02:12:05;;;;;;;18.00;10.48;;;;;;;3.23;78.05;94722.50;5051497;28;20053;-50
2022/04/29 02:14:37;;;;;;;20.70;11.23;;;;;;;3.24;77.89;94719.44;5052400;28;20059;-47
2022/04/29 02:17:05;;;;;;;24.35;14.00;;;;;;;3.26;77.27;94713.66;5051926;28;20045;-47
2022/04/29 02:19:33;;;;;;;22.87;12.10;;;;;;;3.31;77.76;94710.69;5051832;28;20067;-48
2022/04/29 02:22:01;;;;;;;18.73;11.38;;;;;;;3.32;77.71;94709.53;5051665;28;20053;-47
2022/04/29 02:24:28;;;;;;;18.15;11.30;;;;;;;3.28;77.41;94706.75;5051965;28;20134;-52
2022/04/29 02:26:55;;;;;;;16.85;10.52;;;;;;;3.32;76.81;94704.13;5051281;28;20141;-52
2022/04/29 02:29:22;;;;;;;14.93;9.65;;;;;;;3.18;76.53;94708.06;5051898;28;20037;-46
2022/04/29 02:31:49;;;;;;;16.83;10.30;;;;;;;3.13;76.98;94699.38;5051008;28;20043;-46
2022/04/29 02:34:16;;;;;;;14.82;9.73;;;;;;;2.92;77.29;94710.47;5049423;28;20049;-48
2022/04/29 02:36:43;;;;;;;16.75;10.40;;;;;;;3.03;77.68;94711.53;5050887;28;20774;-51
2022/04/29 02:39:10;;;;;;;15.20;9.88;;;;;;;3.01;77.45;94716.50;5050444;28;20049;-49
2022/04/29 02:41:37;;;;;;;17.00;10.50;;;;;;;2.97;77.31;94710.22;5051439;28;20071;-49
2022/04/29 02:44:04;;;;;;;17.47;10.27;;;;;;;2.89;77.45;94711.94;5051183;28;20055;-49
2022/04/29 02:46:30;;;;;;;17.25;10.80;;;;;;;2.88;78.43;94712.28;5050388;28;20355;-48
2022/04/29 02:48:58;;;;;;;17.40;11.07;;;;;;;2.94;77.81;94713.63;5049250;28;20049;-50
2022/04/29 02:51:25;;;;;;;16.95;10.70;;;;;;;2.85;78.57;94713.00;5051646;28;20063;-54
2022/04/29 02:53:51;;;;;;;16.92;10.23;;;;;;;2.88;78.72;94698.72;5050674;28;20041;-52
2022/04/29 02:56:19;;;;;;;17.70;10.67;;;;;;;2.64;79.54;94710.50;5050119;28;20047;-46
2022/04/29 02:58:45;;;;;;;16.00;10.13;;;;;;;2.80;79.02;94701.25;5050656;28;20108;-47
2022/04/29 03:01:12;;;;;;;16.00;10.45;;;;;;;2.80;79.34;94689.63;5048092;28;20052;-47
2022/04/29 03:03:39;;;;;;;16.30;9.65;;;;;;;2.86;79.06;94692.88;5035574;28;20091;-47
2022/04/29 03:06:06;;;;;;;18.73;10.43;;;;;;;2.83;78.65;94685.44;5046735;28;20051;-52
2022/04/29 03:08:33;;;;;;;19.33;11.23;;;;;;;2.62;79.32;94691.06;5050121;28;20053;-50
2022/04/29 03:11:00;;;;;;;18.65;10.38;;;;;;;2.79;78.58;94682.63;5050536;28;20052;-47
2022/04/29 03:13:27;;;;;;;17.08;10.90;;;;;;;2.85;78.55;94670.41;5050040;28;20045;-46
2022/04/29 03:15:54;;;;;;;16.63;10.02;;;;;;;2.82;79.14;94676.53;5049124;28;20049;-47
2022/04/29 03:18:22;;;;;;;19.33;10.93;;;;;;;2.65;79.61;94668.69;5049827;28;20067;-50
2022/04/29 03:20:56;;;;;;;18.00;10.80;;;;;;;2.50;79.91;94667.53;5050041;28;20052;-51
2022/04/29 03:23:24;;;;;;;18.25;11.23;;;;;;;2.39;79.89;94665.31;5051361;28;20116;-46
2022/04/29 03:25:51;;;;;;;17.98;11.15;;;;;;;2.43;79.57;94654.56;5050025;28;20071;-47
2022/04/29 03:28:18;;;;;;;17.95;10.70;;;;;;;2.40;79.77;94657.97;5050843;28;20452;-49
2022/04/29 03:30:45;;;;;;;17.83;11.02;;;;;;;2.49;79.82;94661.31;5050121;28;20041;-47
2022/04/29 03:33:12;;;;;;;17.87;10.60;;;;;;;2.44;79.63;94653.44;5050687;28;20052;-54
2022/04/29 03:35:42;;;;;;;19.52;11.68;;;;;;;2.49;79.57;94655.88;5050755;28;20541;-57
2022/04/29 03:38:09;;;;;;;26.63;15.77;;;;;;;2.58;79.18;94653.81;5048696;28;20087;-45
2022/04/29 03:40:36;;;;;;;18.83;11.07;;;;;;;2.58;78.80;94659.25;5050760;28;20053;-50
2022/04/29 03:43:03;;;;;;;19.83;11.20;;;;;;;2.59;79.07;94665.44;5049840;28;20049;-51
2022/04/29 03:45:30;;;;;;;19.80;11.53;;;;;;;2.65;78.81;94655.16;5049219;28;20094;-48
2022/04/29 03:47:57;;;;;;;19.48;12.00;;;;;;;2.52;79.91;94655.22;5068842;28;20048;-51
2022/04/29 03:50:25;;;;;;;29.20;12.50;;;;;;;2.56;79.62;94658.03;5070496;28;20489;-47
2022/04/29 03:53:01;;;;;;;25.92;12.35;;;;;;;2.60;79.88;94662.41;5069683;28;20045;-46
2022/04/29 03:55:30;;;;;;;23.85;12.23;;;;;;;2.62;79.80;94663.97;5070174;28;20067;-49
2022/04/29 03:57:58;;;;;;;18.10;10.50;;;;;;;2.47;78.37;94654.66;5068050;28;20049;-56
2022/04/29 04:00:28;;;;;;;22.85;11.25;;;;;;;2.46;78.96;94658.53;5065931;28;20115;-51
2022/04/29 04:02:55;;;;;;;25.13;11.90;;;;;;;2.56;79.00;94660.72;5068010;28;20045;-49
2022/04/29 04:05:24;;;;;;;28.02;12.93;;;;;;;2.62;79.32;94656.63;5069928;28;20054;-50
2022/04/29 04:07:51;;;;;;;26.67;13.32;;;;;;;2.64;79.87;94659.00;5069284;28;20051;-53
2022/04/29 04:10:18;;;;;;;20.17;11.33;;;;;;;2.63;78.93;94654.72;5069819;28;20040;-57
2022/04/29 04:12:48;;;;;;;22.80;12.18;;;;;;;2.60;78.65;94662.41;5069233;28;20493;-53
2022/04/29 04:15:18;;;;;;;21.90;12.18;;;;;;;2.44;79.18;94666.22;5069988;28;20045;-56
2022/04/29 04:17:46;;;;;;;20.48;11.63;;;;;;;2.37;79.28;94662.19;5069204;28;20052;-54
2022/04/29 04:20:14;;;;;;;20.60;12.13;;;;;;;2.42;79.62;94665.75;5068085;28;20044;-49
2022/04/29 04:22:41;;;;;;;21.70;11.50;;;;;;;2.24;80.72;94676.09;5069519;28;20093;-52
2022/04/29 04:25:13;;;;;;;19.15;11.18;;;;;;;2.45;80.49;94668.56;5069779;28;20051;-50
2022/04/29 04:27:41;;;;;;;19.70;11.43;;;;;;;2.58;80.16;94674.72;5067749;28;20398;-47
2022/04/29 04:30:08;;;;;;;24.25;13.05;;;;;;;2.73;79.50;94678.59;5069718;28;20063;-50
2022/04/29 04:32:37;;;;;;;21.58;12.05;;;;;;;2.83;79.26;94691.66;5069521;28;20036;-48
2022/04/29 04:35:05;;;;;;;24.60;12.67;;;;;;;2.78;79.48;94684.56;5068941;28;20041;-52
2022/04/29 04:37:33;;;;;;;20.58;11.85;;;;;;;2.64;79.10;94686.88;5069618;28;20037;-48
2022/04/29 04:40:02;;;;;;;19.42;11.48;;;;;;;2.79;78.78;94677.22;5068968;28;20056;-47
2022/04/29 04:42:30;;;;;;;19.27;11.60;;;;;;;3.01;78.36;94683.97;5068273;28;20045;-52
2022/04/29 04:44:57;;;;;;;21.17;11.80;;;;;;;3.18;78.22;94688.28;5068590;28;20045;-52
2022/04/29 04:47:23;;;;;;;19.53;11.20;;;;;;;3.35;77.08;94681.72;5069384;28;20054;-49
2022/04/29 04:49:50;;;;;;;20.77;12.45;;;;;;;3.08;77.28;94686.06;5068404;28;20060;-50
2022/04/29 04:52:17;;;;;;;18.77;11.40;;;;;;;3.03;77.98;94683.63;5068200;28;20039;-47
2022/04/29 04:54:44;;;;;;;20.98;11.35;;;;;;;3.29;76.89;94686.63;5068694;28;20044;-52
2022/04/29 04:57:11;;;;;;;16.92;10.77;;;;;;;3.25;76.64;94685.75;5070453;28;20047;-46
2022/04/29 04:59:38;;;;;;;18.73;11.80;;;;;;;3.36;76.22;94688.72;5070779;28;20063;-53
2022/04/29 05:02:05;;;;;;;17.52;10.80;;;;;;;3.36;76.26;94683.28;5056333;28;20790;-47
2022/04/29 05:04:32;;;;;;;17.27;11.32;;;;;;;3.46;76.19;94690.94;5072024;28;20113;-51
2022/04/29 05:06:59;;;;;;;27.55;12.77;;;;;;;3.57;75.76;94689.22;5072582;28;20443;-50
2022/04/29 05:09:25;;;;;;;28.73;13.88;;;;;;;3.74;75.09;94693.53;5072000;28;20044;-46
2022/04/29 05:11:52;;;;;;;38.90;16.37;;;;;;;3.70;75.13;94691.84;5072324;28;20052;-48
2022/04/29 05:14:32;;;;;;;27.95;14.40;;;;;;;3.71;75.66;94693.44;5073341;28;20041;-50
2022/04/29 05:16:58;;;;;;;26.15;13.40;;;;;;;3.82;75.14;94694.44;5072013;28;20051;-49
2022/04/29 05:19:25;;;;;;;24.95;12.15;;;;;;;3.87;75.28;94701.56;5072597;28;20093;-53
2022/04/29 05:21:52;;;;;;;23.30;12.65;;;;;;;3.59;76.05;94705.19;5072468;28;20498;-50
2022/04/29 05:24:19;;;;;;;22.47;12.20;;;;;;;3.65;75.76;94703.78;5073431;28;20408;-46
2022/04/29 05:26:52;;;;;;;20.58;12.48;;;;;;;3.67;75.75;94696.06;5071045;28;20044;-49
2022/04/29 05:29:19;;;;;;;25.00;13.45;;;;;;;4.00;74.80;94703.00;5071632;28;20052;-47
2022/04/29 05:31:46;;;;;;;24.58;12.93;;;;;;;4.36;74.04;94693.69;5072321;28;20480;-57
2022/04/29 05:34:15;;;;;;;26.38;14.68;;;;;;;4.09;73.47;94703.59;5072940;28;20109;-52
2022/04/29 05:36:42;;;;;;;25.60;12.87;;;;;;;4.55;73.05;94700.31;5072240;28;20037;-52
2022/04/29 05:44:40;;;;;;;22.55;13.75;;;;;;;4.43;73.68;94701.22;5072172;28;20044;-45
2022/04/29 05:47:07;;;;;;;22.77;13.70;;;;;;;4.38;74.28;94696.06;5072522;28;20830;-49
2022/04/29 05:49:34;;;;;;;21.80;12.73;;;;;;;4.84;72.48;94709.78;5072532;28;20036;-52
2022/04/29 05:52:03;;;;;;;21.42;13.43;;;;;;;5.15;71.54;94705.31;5071861;28;20055;-46
2022/04/29 05:54:31;;;;;;;21.85;13.45;;;;;;;5.13;70.67;94704.88;5071429;28;20397;-47
2022/04/29 05:56:59;;;;;;;23.50;13.50;;;;;;;5.34;70.48;94699.03;5071627;28;20053;-47
2022/04/29 05:59:25;;;;;;;21.17;13.65;;;;;;;5.04;70.77;94707.84;5072643;28;20043;-47
2022/04/29 06:01:53;;;;;;;21.53;12.87;;;;;;;5.38;69.72;94705.34;5070644;28;20044;-48
2022/04/29 06:04:20;;;;;;;23.83;14.32;;;;;;;5.70;69.43;94694.19;5072270;28;20474;-47
2022/04/29 06:06:47;;;;;;;21.52;13.52;;;;;;;6.52;67.34;94694.59;5068932;28;20048;-58
2022/04/29 06:09:15;;;;;;;22.90;13.73;;;;;;;7.29;64.21;94690.41;5051777;28;20045;-46
2022/04/29 06:11:42;;;;;;;22.63;13.27;;;;;;;8.08;61.87;94695.72;5050857;28;20041;-49
2022/04/29 06:14:09;;;;;;;24.17;12.67;;;;;;;8.61;60.72;94689.78;5051318;28;20048;-50
2022/04/29 06:16:35;;;;;;;25.33;14.23;;;;;;;8.52;60.04;94692.88;5050158;28;20036;-46
2022/04/29 06:19:02;;;;;;;21.58;12.90;;;;;;;9.27;57.87;94684.16;5050151;28;20559;-49
2022/04/29 06:21:29;;;;;;;21.17;12.60;;;;;;;10.97;53.42;94682.81;5051342;28;20047;-51
2022/04/29 06:23:56;;;;;;;21.00;11.90;;;;;;;11.25;52.19;94681.91;5051101;28;20052;-55
2022/04/29 06:26:23;;;;;;;20.27;11.47;;;;;;;13.96;45.85;94693.25;5034151;28;20041;-49
2022/04/29 06:28:50;;;;;;;14.75;11.02;;;;;;;15.28;44.31;94686.50;5059676;28;20048;-60
2022/04/29 06:31:16;;;;;;;15.05;10.50;;;;;;;17.27;39.42;94678.47;5056938;28;20041;-49
2022/04/29 06:33:43;;;;;;;17.75;10.68;;;;;;;18.90;36.02;94686.84;5057059;28;20049;-48
2022/04/29 06:36:11;;;;;;;17.08;9.98;;;;;;;20.75;33.17;94685.72;5050987;28;20047;-48
2022/04/29 06:38:37;;;;;;;15.13;9.30;;;;;;;21.05;32.15;94685.28;5051888;28;20045;-54
2022/04/29 06:41:04;;;;;;;15.60;10.43;;;;;;;19.10;33.82;94685.75;5050948;28;20041;-55
2022/04/29 06:43:31;;;;;;;14.63;10.93;;;;;;;15.91;40.09;94687.53;5051961;28;20033;-51
2022/04/29 06:45:58;;;;;;;14.23;10.25;;;;;;;17.82;37.49;94694.31;5051035;28;20052;-50
2022/04/29 06:48:25;;;;;;;14.27;11.20;;;;;;;18.12;37.52;94690.22;5051616;28;20059;-49
2022/04/29 06:50:51;;;;;;;20.70;13.40;;;;;;;17.73;38.46;94681.09;5050705;28;20048;-47
2022/04/29 06:53:18;;;;;;;19.13;12.80;;;;;;;17.81;38.18;94684.41;5051574;28;20386;-54
2022/04/29 06:55:45;;;;;;;18.52;12.43;;;;;;;14.74;44.93;94686.81;5051279;28;20083;-51
2022/04/29 06:58:12;;;;;;;17.50;12.55;;;;;;;16.55;41.64;94685.94;5051411;28;20041;-50
2022/04/29 07:00:40;;;;;;;44.08;28.63;;;;;;;17.06;40.35;94677.06;5051644;28;20111;-51
2022/04/29 07:03:07;;;;;;;19.83;12.63;;;;;;;17.14;39.84;94683.19;5050327;28;20842;-49
2022/04/29 07:05:37;;;;;;;16.58;11.38;;;;;;;18.71;36.67;94683.09;5051480;28;20037;-52
2022/04/29 07:08:05;;;;;;;11.88;9.18;;;;;;;20.32;32.81;94676.34;5061319;28;20063;-47
2022/04/29 07:10:32;;;;;;;13.55;8.50;;;;;;;20.31;32.24;94679.56;5071233;28;20040;-47
2022/04/29 07:13:02;;;;;;;11.73;7.78;;;;;;;21.66;29.34;94677.00;5070462;28;20044;-54
2022/04/29 07:15:30;;;;;;;8.30;5.70;;;;;;;22.33;25.88;94675.03;5071352;28;20041;-52
2022/04/29 07:17:57;;;;;;;7.55;5.47;;;;;;;21.78;25.38;94667.63;5070355;28;20485;-51
2022/04/29 07:20:23;;;;;;;8.68;6.65;;;;;;;20.29;28.76;94668.88;5070666;28;20045;-54
2022/04/29 07:22:50;;;;;;;7.53;5.70;;;;;;;20.99;27.09;94665.59;5069376;28;20037;-52
2022/04/29 07:25:19;;;;;;;7.97;5.70;;;;;;;22.34;25.94;94668.19;5070804;28;20043;-57
2022/04/29 07:27:48;;;;;;;6.97;5.50;;;;;;;22.04;24.52;94659.63;5069333;28;20048;-53
2022/04/29 07:30:16;;;;;;;7.57;5.45;;;;;;;20.05;26.79;94657.50;5049164;28;20041;-53
2022/04/29 07:32:42;;;;;;;7.72;5.55;;;;;;;17.94;30.63;94657.47;5059413;28;20048;-50
2022/04/29 07:43:25;;;;;;;7.53;5.80;;;;;;;19.71;27.22;94658.47;5070789;28;20051;-54
2022/04/29 07:45:52;;;;;;;6.95;5.45;;;;;;;20.33;26.21;94647.22;5070360;28;20051;-52
2022/04/29 07:48:20;;;;;;;7.82;5.35;;;;;;;20.09;26.68;94638.63;5070325;28;20051;-53
2022/04/29 07:50:46;;;;;;;6.82;5.70;;;;;;;20.05;26.75;94642.81;5068504;28;20044;-52
2022/04/29 07:53:14;;;;;;;11.27;5.50;;;;;;;21.04;25.21;94639.84;5070296;28;20036;-51
2022/04/29 07:55:41;;;;;;;7.85;5.35;;;;;;;20.15;27.35;94641.59;5069773;28;20045;-53
2022/04/29 07:58:09;;;;;;;7.60;5.75;;;;;;;19.11;27.12;94645.56;5070069;28;20040;-56
2022/04/29 08:00:39;;;;;;;6.25;5.22;;;;;;;17.13;30.97;94640.84;5070319;28;20047;-52
2022/04/29 08:03:25;;;;;;;7.88;6.05;;;;;;;16.37;31.92;94644.06;5069109;28;20394;-48
2022/04/29 08:05:53;;;;;;;7.27;5.10;;;;;;;19.90;28.14;94635.03;5069415;28;20048;-54
2022/04/29 08:08:21;;;;;;;7.00;5.30;;;;;;;20.50;26.32;94630.19;5069925;28;20055;-56
2022/04/29 08:10:47;;;;;;;6.57;4.80;;;;;;;21.25;25.18;94628.94;5069590;28;20814;-56
2022/04/29 08:13:15;;;;;;;7.70;5.10;;;;;;;20.13;26.21;94627.34;5070081;28;20390;-56
2022/04/29 08:15:46;;;;;;;6.82;5.13;;;;;;;20.51;25.72;94640.13;5069629;28;20048;-52
2022/04/29 08:18:13;;;;;;;7.63;4.67;;;;;;;21.90;24.12;94635.16;5069553;28;20105;-53
2022/04/29 08:20:40;;;;;;;8.23;4.90;;;;;;;22.17;23.83;94631.44;5069601;28;20036;-48
2022/04/29 08:23:07;;;;;;;7.50;4.95;;;;;;;24.42;22.04;94631.97;5069862;28;20392;-50
2022/04/29 08:25:35;;;;;;;6.18;4.60;;;;;;;24.77;20.16;94633.22;5069954;28;20044;-54
2022/04/29 08:28:03;;;;;;;5.68;4.30;;;;;;;22.83;23.03;94644.56;5069264;28;20054;-49
2022/04/29 08:30:31;;;;;;;8.20;5.10;;;;;;;22.71;22.48;94642.78;5069870;28;20045;-50
2022/04/29 08:32:59;;;;;;;6.85;5.20;;;;;;;24.33;20.53;94641.31;5068355;28;20078;-50
2022/04/29 08:35:27;;;;;;;6.45;4.93;;;;;;;24.31;21.79;94638.22;5069952;28;20401;-50
2022/04/29 08:37:54;;;;;;;9.30;6.97;;;;;;;22.69;22.67;94645.28;5069127;28;20048;-48
2022/04/29 08:40:21;;;;;;;6.40;4.82;;;;;;;24.22;21.23;94638.31;5069367;28;20093;-53
2022/04/29 08:42:49;;;;;;;6.20;4.70;;;;;;;23.35;22.07;94643.53;5069109;28;20044;-49
2022/04/29 08:45:18;;;;;;;6.13;4.95;;;;;;;22.71;21.79;94635.16;5068289;28;20040;-51
2022/04/29 08:47:46;;;;;;;8.02;5.30;;;;;;;20.29;24.62;94637.44;5066024;28;20060;-52
2022/04/29 08:50:15;;;;;;;7.68;5.10;;;;;;;20.51;25.23;94635.31;5058739;28;20052;-47
2022/04/29 08:52:42;;;;;;;6.75;4.70;;;;;;;22.76;22.62;94633.75;5049215;28;20405;-51
2022/04/29 09:00:42;;;;;;;6.28;5.07;;;;;;;20.01;25.68;94629.00;5049251;28;20043;-49
2022/04/29 09:03:13;;;;;;;5.55;4.50;;;;;;;21.04;24.74;94636.28;5049167;28;20041;-49
2022/04/29 09:05:41;;;;;;;6.85;4.70;;;;;;;22.90;23.00;94644.19;5049302;28;20041;-48
2022/04/29 09:08:12;;;;;;;6.83;4.90;;;;;;;21.34;23.81;94620.56;5060503;28;20105;-51
2022/04/29 09:10:56;;;;;;;7.40;4.90;;;;;;;22.09;23.34;94627.44;5069484;28;20039;-49
2022/04/29 09:13:30;;;;;;;7.55;5.05;;;;;;;22.35;22.96;94619.41;5068734;28;20802;-50
2022/04/29 09:16:00;;;;;;;6.95;4.90;;;;;;;21.81;22.84;94627.59;5068979;28;20052;-51
2022/04/29 09:18:53;;;;;;;6.10;4.80;;;;;;;19.81;26.45;94628.66;5069245;28;20041;-50
2022/04/29 09:21:28;;;;;;;6.33;5.07;;;;;;;21.37;24.44;94616.84;5051764;28;20056;-54
2022/04/29 09:24:03;;;;;;;7.63;5.00;;;;;;;20.36;25.48;94620.41;5049022;28;20068;-52
2022/04/29 09:26:34;;;;;;;6.95;4.53;;;;;;;22.21;23.77;94622.88;5047985;28;20041;-47
2022/04/29 09:29:19;;;;;;;8.77;5.18;;;;;;;22.22;23.52;94618.84;5048594;28;20074;-53
2022/04/29 09:31:55;;;;;;;5.85;4.90;;;;;;;21.93;24.09;94614.63;5031157;28;20057;-49
2022/04/29 09:34:53;;;;;;;6.23;4.60;;;;;;;23.46;22.08;94602.47;5048845;28;20033;-50
2022/04/29 09:37:22;;;;;;;7.25;5.20;;;;;;;19.62;26.36;94599.91;5048262;28;20061;-48
2022/04/29 09:40:03;;;;;;;6.88;4.70;;;;;;;21.21;25.25;94614.38;5048854;28;20053;-50
2022/04/29 09:42:41;;;;;;;8.25;4.90;;;;;;;20.39;26.12;94604.78;5049384;28;20049;-50
2022/04/29 09:45:24;;;;;;;6.28;4.22;;;;;;;20.38;25.19;94609.56;5051974;28;20586;-55
2022/04/29 09:47:58;;;;;;;6.77;5.30;;;;;;;19.27;27.19;94602.84;5052619;28;20048;-46
2022/04/29 09:50:48;;;;;;;6.88;5.20;;;;;;;19.58;27.84;94602.06;5052419;28;20109;-51
2022/04/29 09:53:20;;;;;;;6.72;5.25;;;;;;;21.52;25.02;94600.97;5050258;28;20055;-51
2022/04/29 09:56:09;;;;;;;8.05;4.88;;;;;;;22.30;24.08;94600.50;5052110;28;20045;-46
2022/04/29 09:58:36;;;;;;;8.45;5.03;;;;;;;21.57;25.12;94596.81;5052427;28;20041;-53
2022/04/29 10:01:04;;;;;;;6.00;4.80;;;;;;;24.37;22.76;94595.41;5045345;28;20047;-51
2022/04/29 10:03:33;;;;;;;7.07;5.00;;;;;;;19.89;26.52;94605.59;5041258;28;20047;-48
2022/04/29 10:06:02;;;;;;;6.60;5.20;;;;;;;18.28;29.18;94601.16;5051960;28;20045;-51
2022/04/29 10:08:30;;;;;;;7.18;5.40;;;;;;;17.25;30.54;94602.47;5052105;28;20494;-49
2022/04/29 10:10:59;;;;;;;11.50;9.20;;;;;;;20.73;25.88;94598.16;5050714;28;20041;-50
2022/04/29 10:13:27;;;;;;;9.10;5.70;;;;;;;22.24;24.54;94586.38;5052181;28;20045;-53
2022/04/29 10:15:55;;;;;;;9.10;5.50;;;;;;;20.94;26.10;94580.47;5051765;28;20337;-51
2022/04/29 10:21:16;;;;;;;6.95;5.88;;;;;;;18.10;30.00;94590.66;5050838;28;20326;-50
2022/04/29 10:23:48;;;;;;;8.15;4.90;;;;;;;20.65;26.35;94591.34;5051747;28;20045;-48
2022/04/29 10:26:17;;;;;;;6.40;4.60;;;;;;;22.22;24.70;94574.88;5050726;28;20051;-49
2022/04/29 10:28:45;;;;;;;6.03;4.68;;;;;;;22.81;23.80;94579.91;5052021;28;20474;-53
2022/04/29 10:31:22;;;;;;;7.07;5.40;;;;;;;22.31;24.85;94574.84;5050504;28;20049;-48
2022/04/29 10:33:49;;;;;;;6.70;4.72;;;;;;;21.47;25.82;94579.28;5051817;28;20118;-53
2022/04/29 10:36:22;;;;;;;7.43;5.00;;;;;;;22.16;23.96;94579.59;5052014;28;20508;-50
2022/04/29 10:39:00;;;;;;;7.77;4.77;;;;;;;21.91;25.11;94591.97;5051401;28;20126;-51
2022/04/29 10:41:27;;;;;;;6.72;4.97;;;;;;;20.75;26.59;94590.88;5051626;28;20036;-48
2022/04/29 10:43:53;;;;;;;8.90;5.90;;;;;;;20.15;26.01;94588.66;5050062;28;20047;-55
2022/04/29 10:46:31;;;;;;;7.65;5.32;;;;;;;21.88;25.71;94576.94;5050188;28;20049;-51
2022/04/29 10:49:27;;;;;;;7.60;4.97;;;;;;;22.65;24.53;94575.50;5051208;28;20049;-51
2022/04/29 10:52:02;;;;;;;9.23;5.20;;;;;;;24.60;21.67;94568.47;5051606;28;20049;-51
2022/04/29 10:54:40;;;;;;;5.82;4.80;;;;;;;25.28;21.15;94570.75;5049930;28;20494;-50
2022/04/29 10:57:12;;;;;;;9.55;5.22;;;;;;;23.72;23.00;94566.22;5050234;28;20555;-50
2022/04/29 10:59:49;;;;;;;8.18;5.75;;;;;;;18.87;27.97;94565.34;5051253;28;20059;-57
2022/04/29 11:02:29;;;;;;;7.32;5.43;;;;;;;20.38;26.78;94570.53;5037383;28;21665;-51
2022/04/29 11:04:58;;;;;;;7.17;5.00;;;;;;;21.53;24.97;94563.44;5048757;28;20079;-54
2022/04/29 11:07:44;;;;;;;8.60;4.95;;;;;;;19.80;28.37;94557.44;5050988;28;20041;-52
2022/04/29 11:10:15;;;;;;;9.55;5.78;;;;;;;17.51;29.40;94559.63;5050278;28;20397;-50
2022/04/29 11:12:58;;;;;;;8.73;6.93;;;;;;;17.14;31.24;94561.16;5050842;28;20041;-56
2022/04/29 11:15:43;;;;;;;7.70;5.50;;;;;;;18.74;29.88;94554.28;5033717;28;20052;-54
2022/04/29 11:18:26;;;;;;;9.20;5.00;;;;;;;20.15;27.48;94552.41;5048643;28;20672;-50
2022/04/29 11:20:59;;;;;;;7.80;5.10;;;;;;;20.67;26.32;94550.59;5050439;28;20075;-54
2022/04/29 11:26:17;;;;;;;6.47;4.75;;;;;;;20.08;27.22;94547.13;5039227;28;20049;-50
2022/04/29 11:28:50;;;;;;;7.57;4.60;;;;;;;20.86;26.29;94551.34;5050479;28;20056;-52
2022/04/29 11:31:17;;;;;;;6.03;4.80;;;;;;;18.48;28.09;94542.53;5049245;28;20045;-51
2022/04/29 11:33:44;;;;;;;6.05;4.60;;;;;;;19.69;26.64;94532.81;5049206;28;20056;-49
2022/04/29 11:36:12;;;;;;;6.85;4.68;;;;;;;18.81;26.94;94538.59;5049211;28;20401;-54
2022/04/29 11:38:44;;;;;;;7.53;4.82;;;;;;;18.07;27.98;94533.25;5050430;28;20051;-54
2022/04/29 11:41:18;;;;;;;6.82;4.82;;;;;;;19.13;27.19;94531.81;5069654;28;21775;-57
2022/04/29 11:43:47;;;;;;;8.03;4.80;;;;;;;19.15;26.51;94529.34;5070193;28;20063;-56
2022/04/29 11:46:14;;;;;;;6.13;4.40;;;;;;;18.51;27.17;94529.72;5070322;28;20386;-52
2022/04/29 11:48:52;;;;;;;5.70;4.20;;;;;;;18.52;27.01;94523.72;5070104;28;20058;-48
2022/04/29 11:51:19;;;;;;;7.32;4.20;;;;;;;20.28;24.73;94519.63;5070320;28;20157;-54
2022/04/29 11:54:04;;;;;;;6.28;3.80;;;;;;;21.37;24.19;94521.91;5069919;28;20082;-54
2022/04/29 11:56:33;;;;;;;8.27;3.73;;;;;;;21.42;23.95;94512.13;5070009;28;20132;-51
2022/04/29 11:59:00;;;;;;;6.35;3.90;;;;;;;21.50;24.46;94507.75;5069860;28;20063;-49
2022/04/29 12:01:27;;;;;;;5.55;4.20;;;;;;;20.11;25.48;94504.44;5042727;28;20084;-51
2022/04/29 12:03:55;;;;;;;6.28;4.13;;;;;;;20.03;25.22;94503.19;5028663;28;20038;-54